Time;durP1;ratioP1;P1;durP2;ratioP2;P2;SDS_P1;SDS_P2;PMS_P1;PMS_P2;Temp;Humidity;BMP_temperature;BMP_pressure;BME280_temperature;BME280_humidity;BME280_pressure;Samples;Min_cycle;Max_cycle;Signal;HPM_P1;HPM_P2
2023/07/13 00:01:15;;;;;;;3.30;0.52;;;24.00;61.20;;;;;;2292903;55;20932;-68
2023/07/13 00:03:42;;;;;;;3.03;0.70;;;24.00;60.90;;;;;;2292600;55;20916;-68
2023/07/13 00:06:08;;;;;;;1.30;0.50;;;24.00;61.20;;;;;;2293553;56;21367;-67
2023/07/13 00:08:36;;;;;;;1.12;0.50;;;24.00;61.20;;;;;;2293438;55;20920;-67
2023/07/13 00:11:03;;;;;;;1.25;0.50;;;24.00;61.20;;;;;;2528415;54;21092;-71
2023/07/13 00:13:30;;;;;;;1.65;0.60;;;24.00;61.20;;;;;;2527954;54;21432;-69
2023/07/13 00:16:00;;;;;;;1.73;0.60;;;24.00;61.30;;;;;;2276034;55;20966;-67
2023/07/13 00:18:29;;;;;;;1.60;0.45;;;24.00;61.30;;;;;;2522620;54;21039;-68
2023/07/13 00:21:04;;;;;;;1.25;0.60;;;24.00;61.20;;;;;;2272393;55;21038;-68
2023/07/13 00:23:38;;;;;;;1.62;0.60;;;24.00;61.20;;;;;;2527683;54;21375;-68
2023/07/13 00:26:05;;;;;;;1.60;0.50;;;24.00;60.80;;;;;;2292103;55;20925;-69
2023/07/13 00:28:32;;;;;;;0.88;0.40;;;24.00;61.20;;;;;;2528301;54;20972;-72
2023/07/13 00:30:58;;;;;;;1.62;0.70;;;24.00;61.20;;;;;;2292894;55;20905;-67
2023/07/13 00:33:24;;;;;;;1.02;0.50;;;23.90;61.10;;;;;;2292586;55;20976;-71
2023/07/13 00:35:51;;;;;;;1.27;0.45;;;23.90;61.10;;;;;;2526543;54;20912;-68
2023/07/13 00:38:17;;;;;;;0.98;0.40;;;23.90;61.10;;;;;;2272464;55;20936;-67
2023/07/13 00:40:43;;;;;;;1.42;0.43;;;23.90;61.20;;;;;;2291905;55;20940;-68
2023/07/13 00:43:16;;;;;;;1.08;0.40;;;23.90;61.10;;;;;;2528548;54;21087;-67
2023/07/13 00:47:13;;;;;;;1.12;0.45;;;23.90;61.00;;;;;;2292234;55;20912;-67
2023/07/13 00:49:39;;;;;;;1.05;0.57;;;23.90;59.90;;;;;;2291675;55;20953;-65
2023/07/13 00:52:07;;;;;;;1.27;0.50;;;23.90;61.20;;;;;;2292231;56;21016;-71
2023/07/13 00:54:38;;;;;;;1.05;0.40;;;23.90;61.20;;;;;;2517352;54;21429;-68
2023/07/13 00:57:07;;;;;;;1.05;0.50;;;23.80;60.70;;;;;;2281697;55;20893;-69
2023/07/13 00:59:34;;;;;;;1.98;0.50;;;23.80;61.00;;;;;;2291872;55;20944;-70
2023/07/13 01:02:02;;;;;;;2.87;0.70;;;23.80;61.00;;;;;;2528597;54;21437;-68
2023/07/13 01:04:29;;;;;;;2.17;0.60;;;23.80;61.00;;;;;;2292880;56;20999;-67
2023/07/13 01:06:57;;;;;;;1.12;0.50;;;23.80;61.10;;;;;;2528455;54;20992;-69
2023/07/13 01:09:25;;;;;;;1.08;0.40;;;23.80;61.30;;;;;;2292736;55;20920;-69
2023/07/13 01:11:51;;;;;;;1.83;0.60;;;23.70;61.20;;;;;;2527905;54;21374;-67
2023/07/13 01:14:18;;;;;;;1.10;0.50;;;23.70;61.30;;;;;;2523070;54;21093;-68
2023/07/13 01:16:47;;;;;;;1.35;0.60;;;23.70;61.40;;;;;;2527883;54;20881;-67
2023/07/13 01:19:40;;;;;;;1.45;0.50;;;23.70;61.40;;;;;;2528856;54;21750;-69
2023/07/13 01:22:13;;;;;;;0.93;0.40;;;23.70;61.00;;;;;;2528821;54;20919;-70
2023/07/13 01:24:40;;;;;;;1.42;0.60;;;23.70;61.40;;;;;;2528102;54;20901;-69
2023/07/13 01:27:07;;;;;;;1.20;0.60;;;23.60;61.40;;;;;;2293251;55;21028;-68
2023/07/13 01:29:34;;;;;;;1.25;0.50;;;23.60;61.40;;;;;;2292765;55;21019;-67
2023/07/13 01:32:01;;;;;;;2.20;0.70;;;23.60;61.30;;;;;;2293140;56;20975;-67
2023/07/13 01:34:28;;;;;;;2.00;0.70;;;23.60;61.20;;;;;;2293220;55;21074;-67
2023/07/13 01:36:54;;;;;;;1.77;0.60;;;23.50;61.00;;;;;;2528036;54;20920;-69
2023/07/13 01:39:21;;;;;;;1.48;0.60;;;23.50;61.00;;;;;;2528166;54;21995;-69
2023/07/13 01:41:48;;;;;;;1.30;0.40;;;23.50;61.00;;;;;;2292497;56;20885;-69
2023/07/13 01:44:14;;;;;;;1.95;0.60;;;23.40;60.80;;;;;;2293316;55;20929;-66
2023/07/13 01:46:41;;;;;;;2.12;0.70;;;23.40;60.80;;;;;;2292339;55;21485;-69
2023/07/13 01:49:07;;;;;;;1.62;0.50;;;23.30;60.70;;;;;;2528868;54;21621;-68
2023/07/13 01:51:33;;;;;;;2.95;0.65;;;23.30;60.70;;;;;;2292685;55;20970;-68
2023/07/13 01:54:00;;;;;;;3.00;0.70;;;23.30;60.70;;;;;;2293299;55;20972;-66
2023/07/13 01:56:26;;;;;;;1.30;0.60;;;23.20;60.50;;;;;;2295970;55;20932;-68
2023/07/13 01:58:53;;;;;;;1.00;0.52;;;23.20;60.50;;;;;;2293365;55;20924;-67
2023/07/13 02:01:25;;;;;;;1.75;0.60;;;23.10;60.50;;;;;;2521644;54;20969;-68
2023/07/13 02:03:51;;;;;;;0.98;0.50;;;23.10;60.40;;;;;;2277673;55;21333;-67
2023/07/13 02:06:49;;;;;;;1.58;0.75;;;23.10;60.50;;;;;;2528852;54;20924;-72
2023/07/13 02:09:15;;;;;;;1.50;0.57;;;23.00;59.70;;;;;;2292474;55;20940;-68
2023/07/13 02:11:42;;;;;;;1.35;0.60;;;23.00;60.70;;;;;;2527435;54;20924;-67
2023/07/13 02:14:08;;;;;;;1.15;0.50;;;22.90;60.70;;;;;;2528983;54;21744;-67
2023/07/13 02:16:36;;;;;;;1.50;0.60;;;22.90;60.80;;;;;;2292592;55;21068;-71
2023/07/13 02:19:03;;;;;;;1.85;0.70;;;22.80;60.70;;;;;;2293158;55;20928;-71
2023/07/13 02:21:30;;;;;;;1.23;0.50;;;22.80;60.90;;;;;;2292733;55;20913;-68
2023/07/13 02:23:59;;;;;;;1.35;0.60;;;22.80;60.90;;;;;;2292995;55;21064;-69
2023/07/13 02:26:28;;;;;;;1.73;0.60;;;22.70;60.90;;;;;;2295063;55;21019;-67
2023/07/13 02:28:54;;;;;;;1.83;0.68;;;22.70;61.00;;;;;;2272581;55;20984;-68
2023/07/13 02:31:21;;;;;;;1.42;0.55;;;22.70;60.90;;;;;;2273336;55;20978;-69
2023/07/13 02:33:47;;;;;;;2.45;0.65;;;22.70;60.90;;;;;;2527274;54;21004;-67
2023/07/13 02:36:16;;;;;;;4.18;0.80;;;22.60;60.80;;;;;;2280762;55;20951;-66
2023/07/13 02:38:42;;;;;;;1.80;0.60;;;22.60;60.80;;;;;;2520531;54;20953;-69
2023/07/13 02:41:09;;;;;;;2.03;0.70;;;22.50;60.90;;;;;;2510390;54;20970;-69
2023/07/13 02:43:36;;;;;;;1.52;0.50;;;22.50;61.00;;;;;;2275464;55;20989;-67
2023/07/13 02:46:07;;;;;;;1.60;0.73;;;22.50;61.10;;;;;;2285570;55;21977;-68
2023/07/13 02:48:34;;;;;;;1.75;0.50;;;22.40;61.00;;;;;;2294361;55;20908;-69
2023/07/13 02:51:01;;;;;;;1.17;0.60;;;22.50;61.10;;;;;;2505448;54;20976;-70
2023/07/13 02:53:28;;;;;;;2.12;0.70;;;22.40;61.00;;;;;;2529042;54;21008;-66
2023/07/13 02:55:55;;;;;;;1.65;0.70;;;22.40;61.00;;;;;;2527934;54;21496;-70
2023/07/13 02:58:25;;;;;;;1.48;0.65;;;22.30;60.80;;;;;;2524705;54;20912;-69
2023/07/13 03:00:51;;;;;;;1.92;0.60;;;22.30;60.80;;;;;;2292744;55;20941;-70
2023/07/13 03:03:18;;;;;;;1.58;0.68;;;22.30;61.00;;;;;;2528740;54;20972;-67
2023/07/13 03:05:49;;;;;;;2.20;0.77;;;22.20;61.00;;;;;;2292795;55;20996;-66
2023/07/13 03:08:18;;;;;;;2.53;0.80;;;22.20;61.00;;;;;;2501995;54;21413;-70
2023/07/13 03:10:45;;;;;;;1.55;0.60;;;22.20;61.10;;;;;;2528076;54;21016;-66
2023/07/13 03:13:11;;;;;;;2.12;0.60;;;22.20;61.10;;;;;;2292980;55;21659;-66
2023/07/13 03:15:37;;;;;;;1.55;0.62;;;22.10;61.10;;;;;;2292930;55;22609;-67
2023/07/13 03:18:04;;;;;;;1.65;0.62;;;22.10;61.10;;;;;;2528485;54;21760;-66
2023/07/13 03:20:33;;;;;;;1.65;0.73;;;22.10;61.10;;;;;;2528958;54;21005;-66
2023/07/13 03:23:03;;;;;;;1.90;0.70;;;22.10;61.10;;;;;;2293379;55;20955;-69
2023/07/13 03:25:30;;;;;;;3.50;0.55;;;22.10;61.20;;;;;;2527951;54;20948;-68
2023/07/13 03:27:57;;;;;;;1.80;0.60;;;22.10;61.20;;;;;;2505990;54;20938;-71
2023/07/13 03:30:24;;;;;;;1.67;0.70;;;22.00;61.20;;;;;;2289300;55;20913;-67
2023/07/13 03:32:50;;;;;;;1.65;0.52;;;22.00;61.20;;;;;;2296439;55;20944;-70
2023/07/13 03:35:17;;;;;;;2.28;0.80;;;22.00;61.20;;;;;;2502155;54;20912;-66
2023/07/13 03:37:44;;;;;;;2.00;0.60;;;22.00;61.20;;;;;;2292692;55;20909;-67
2023/07/13 03:40:11;;;;;;;1.40;0.65;;;22.00;61.20;;;;;;2281944;55;21031;-68
2023/07/13 03:42:41;;;;;;;2.00;0.70;;;21.90;61.10;;;;;;2285470;55;20975;-67
2023/07/13 03:45:10;;;;;;;3.40;0.70;;;21.90;61.10;;;;;;2499293;54;21905;-68
2023/07/13 03:47:39;;;;;;;2.12;0.57;;;21.90;61.00;;;;;;2512500;54;21009;-66
2023/07/13 03:50:07;;;;;;;2.30;0.80;;;21.90;61.10;;;;;;2519480;54;21728;-67
2023/07/13 03:52:37;;;;;;;3.37;0.62;;;21.90;61.10;;;;;;2527821;54;21692;-66
2023/07/13 03:55:15;;;;;;;3.08;0.90;;;21.80;61.10;;;;;;2528176;54;20947;-66
2023/07/13 03:57:41;;;;;;;1.80;0.60;;;21.90;60.60;;;;;;2527846;54;21434;-68
2023/07/13 04:00:09;;;;;;;1.55;0.60;;;21.80;61.20;;;;;;2293030;56;21455;-68
2023/07/13 04:02:37;;;;;;;1.35;0.68;;;21.80;61.20;;;;;;2244845;55;2972621;-66
2023/07/13 04:05:04;;;;;;;2.15;0.65;;;21.80;61.20;;;;;;2526708;54;20940;-67
2023/07/13 04:07:31;;;;;;;1.55;0.70;;;21.70;61.10;;;;;;2282597;55;21532;-69
2023/07/13 04:09:57;;;;;;;1.37;0.57;;;21.70;61.20;;;;;;2516251;54;22081;-69
2023/07/13 04:12:24;;;;;;;1.85;0.70;;;21.70;61.30;;;;;;2292518;56;20920;-70
2023/07/13 04:14:51;;;;;;;1.70;0.60;;;21.70;61.30;;;;;;2292373;55;20916;-65
2023/07/13 04:17:17;;;;;;;4.05;1.10;;;21.60;61.30;;;;;;2527714;54;20932;-66
2023/07/13 04:19:43;;;;;;;2.55;0.80;;;21.60;61.30;;;;;;2509043;54;21907;-68
2023/07/13 04:22:10;;;;;;;2.67;0.60;;;21.60;61.40;;;;;;2519803;54;20954;-67
2023/07/13 04:24:37;;;;;;;3.03;0.70;;;21.60;61.50;;;;;;2526629;54;20937;-69
2023/07/13 04:27:03;;;;;;;1.55;0.70;;;21.50;61.50;;;;;;2525725;54;20988;-69
2023/07/13 04:29:30;;;;;;;1.23;0.60;;;21.50;61.60;;;;;;2527276;54;20973;-68
2023/07/13 04:31:56;;;;;;;1.12;0.47;;;21.50;61.70;;;;;;2289785;55;21022;-68
2023/07/13 04:34:23;;;;;;;1.65;0.60;;;21.50;61.80;;;;;;2508245;54;21773;-68
2023/07/13 04:36:50;;;;;;;1.75;0.60;;;21.50;61.80;;;;;;2526824;54;20921;-66
2023/07/13 04:39:16;;;;;;;2.20;0.70;;;21.50;61.90;;;;;;2292106;55;20972;-67
2023/07/13 04:41:43;;;;;;;1.83;0.80;;;21.50;62.00;;;;;;2527323;54;20940;-67
2023/07/13 04:44:09;;;;;;;3.40;1.05;;;21.50;62.00;;;;;;2293175;55;21350;-71
2023/07/13 04:46:38;;;;;;;4.50;0.90;;;21.50;62.00;;;;;;2527612;54;20932;-69
2023/07/13 04:49:06;;;;;;;1.95;0.70;;;21.40;61.80;;;;;;2293329;55;20932;-68
2023/07/13 04:51:34;;;;;;;2.97;1.10;;;21.50;62.10;;;;;;2277466;55;21952;-68
2023/07/13 04:54:00;;;;;;;1.75;0.62;;;21.50;62.00;;;;;;2288731;55;22031;-67
2023/07/13 04:56:27;;;;;;;1.40;0.60;;;21.40;61.90;;;;;;2528294;54;21059;-69
2023/07/13 04:58:54;;;;;;;1.65;0.68;;;21.50;62.00;;;;;;2292238;56;20913;-67
2023/07/13 05:01:20;;;;;;;1.92;0.65;;;21.40;62.00;;;;;;2528422;54;20944;-68
2023/07/13 05:03:50;;;;;;;1.92;0.93;;;21.40;62.10;;;;;;2295372;55;21031;-69
2023/07/13 05:06:16;;;;;;;2.22;0.82;;;21.40;62.20;;;;;;2528507;54;20932;-69
2023/07/13 05:08:42;;;;;;;1.70;0.80;;;21.40;62.20;;;;;;2527646;54;20916;-66
2023/07/13 05:11:09;;;;;;;2.37;0.98;;;21.40;62.20;;;;;;2527253;54;20909;-69
2023/07/13 05:13:35;;;;;;;2.35;0.80;;;21.40;62.20;;;;;;2292109;55;20997;-68
2023/07/13 05:16:05;;;;;;;2.17;0.80;;;21.40;62.30;;;;;;2278318;55;21448;-66
2023/07/13 05:18:32;;;;;;;2.15;0.90;;;21.40;62.20;;;;;;2523285;54;20920;-67
2023/07/13 05:21:00;;;;;;;3.60;0.90;;;21.40;62.40;;;;;;2292166;55;20999;-69
2023/07/13 05:23:29;;;;;;;4.65;1.05;;;21.30;62.30;;;;;;2528291;54;21796;-66
2023/07/13 05:25:59;;;;;;;1.98;0.90;;;21.30;62.40;;;;;;2527845;54;20921;-67
2023/07/13 05:28:25;;;;;;;2.33;0.80;;;21.40;62.40;;;;;;2292755;55;21016;-67
2023/07/13 05:30:53;;;;;;;1.37;0.73;;;21.40;62.60;;;;;;2527988;54;21068;-70
2023/07/13 05:33:20;;;;;;;2.78;0.80;;;21.40;62.60;;;;;;2478835;55;21061;-68
2023/07/13 05:35:49;;;;;;;2.58;0.90;;;21.40;62.70;;;;;;2285900;55;20980;-66
2023/07/13 05:38:16;;;;;;;1.67;0.70;;;21.40;62.70;;;;;;2292667;55;20952;-66
2023/07/13 05:40:43;;;;;;;3.40;1.42;;;21.40;62.90;;;;;;2528360;54;20992;-66
2023/07/13 05:43:10;;;;;;;3.90;1.60;;;21.40;62.90;;;;;;2293256;55;21373;-69
2023/07/13 05:45:36;;;;;;;3.20;1.50;;;21.50;63.10;;;;;;2292492;56;20952;-68
2023/07/13 05:48:03;;;;;;;2.42;1.30;;;21.50;63.10;;;;;;2292185;55;20947;-66
2023/07/13 05:50:29;;;;;;;2.80;1.33;;;21.50;63.20;;;;;;2528490;54;20981;-67
2023/07/13 05:52:56;;;;;;;2.87;1.30;;;21.50;63.20;;;;;;2527834;54;21498;-69
2023/07/13 05:55:25;;;;;;;5.15;1.23;;;21.60;63.40;;;;;;2527469;54;21424;-70
2023/07/13 05:57:52;;;;;;;3.47;1.42;;;21.60;63.50;;;;;;2292740;55;20995;-69
2023/07/13 06:00:21;;;;;;;3.20;1.02;;;21.70;63.50;;;;;;2292773;56;20948;-67
2023/07/13 06:02:50;;;;;;;3.40;1.10;;;21.70;63.60;;;;;;2526542;54;20912;-72
2023/07/13 06:05:21;;;;;;;2.72;1.10;;;21.80;63.50;;;;;;2527902;54;21013;-67
2023/07/13 06:07:48;;;;;;;2.95;1.12;;;21.80;63.60;;;;;;2286459;55;21009;-67
2023/07/13 06:10:14;;;;;;;2.40;1.15;;;21.80;63.60;;;;;;2279495;55;20918;-69
2023/07/13 06:12:40;;;;;;;2.50;1.10;;;21.90;63.50;;;;;;2273980;55;21021;-67
2023/07/13 06:15:07;;;;;;;2.65;0.90;;;21.90;63.50;;;;;;2527721;54;20996;-67
2023/07/13 06:17:34;;;;;;;2.25;0.90;;;22.00;63.70;;;;;;2293141;55;21414;-70
2023/07/13 06:20:00;;;;;;;3.85;1.27;;;22.00;63.70;;;;;;2527440;54;20984;-66
2023/07/13 06:22:27;;;;;;;2.55;0.90;;;22.00;63.70;;;;;;2528345;54;20917;-70
2023/07/13 06:24:54;;;;;;;3.10;1.20;;;22.00;63.60;;;;;;2527571;54;20949;-68
2023/07/13 06:27:20;;;;;;;1.98;0.80;;;22.10;63.70;;;;;;2292654;55;20999;-68
2023/07/13 06:29:47;;;;;;;1.85;0.80;;;22.10;63.70;;;;;;2291755;55;21455;-69
2023/07/13 06:32:14;;;;;;;1.67;0.77;;;22.20;63.80;;;;;;2527651;54;20912;-68
2023/07/13 06:34:42;;;;;;;3.25;0.80;;;22.20;63.70;;;;;;2527497;54;20936;-68
2023/07/13 06:37:09;;;;;;;1.52;0.73;;;22.30;63.70;;;;;;2527133;54;20916;-67
2023/07/13 06:39:35;;;;;;;2.80;0.90;;;22.30;63.80;;;;;;2519649;54;21002;-72
2023/07/13 06:42:04;;;;;;;2.58;0.80;;;22.40;63.70;;;;;;2509126;54;20920;-68
2023/07/13 06:44:31;;;;;;;1.85;0.73;;;22.40;63.60;;;;;;2528692;54;20999;-68
2023/07/13 06:46:58;;;;;;;2.10;0.90;;;22.40;63.50;;;;;;2527286;54;20980;-69
2023/07/13 06:49:24;;;;;;;2.72;0.90;;;22.50;63.50;;;;;;2292614;55;21041;-68
2023/07/13 06:51:50;;;;;;;2.42;1.20;;;22.50;63.40;;;;;;2273764;55;20924;-69
2023/07/13 06:54:17;;;;;;;2.67;0.98;;;22.60;63.30;;;;;;2528239;54;20984;-68
2023/07/13 06:56:43;;;;;;;7.35;1.05;;;22.60;63.20;;;;;;2292472;55;21369;-68
2023/07/13 06:59:09;;;;;;;2.08;0.98;;;22.70;63.10;;;;;;2291974;55;20988;-66
2023/07/13 07:01:36;;;;;;;2.10;0.80;;;22.70;63.80;;;;;;2527688;54;21574;-68
2023/07/13 07:04:03;;;;;;;1.60;0.73;;;22.70;63.00;;;;;;2292366;55;20928;-69
2023/07/13 07:06:33;;;;;;;1.95;0.80;;;22.80;62.90;;;;;;2527832;54;20920;-70
2023/07/13 07:09:01;;;;;;;3.30;0.95;;;22.90;63.30;;;;;;2292075;55;20936;-69
2023/07/13 07:11:30;;;;;;;2.53;0.70;;;22.90;62.70;;;;;;2527581;54;21417;-68
2023/07/13 07:14:14;;;;;;;5.12;0.90;;;23.00;62.80;;;;;;2292411;55;20997;-68
2023/07/13 07:16:40;;;;;;;1.70;0.90;;;23.10;61.50;;;;;;2283132;55;20969;-68
2023/07/13 07:19:07;;;;;;;3.40;0.90;;;23.10;62.60;;;;;;2515717;54;20924;-70
2023/07/13 07:21:34;;;;;;;2.58;1.00;;;23.10;62.40;;;;;;2526879;54;20940;-69
2023/07/13 07:24:00;;;;;;;2.35;0.80;;;23.20;62.20;;;;;;2527546;54;21822;-67
2023/07/13 07:26:28;;;;;;;2.83;0.90;;;23.20;62.10;;;;;;2293903;55;20976;-69
2023/07/13 07:28:56;;;;;;;1.80;0.77;;;23.30;62.10;;;;;;2292751;55;21379;-69
2023/07/13 07:31:25;;;;;;;1.37;0.62;;;23.40;62.20;;;;;;2527276;54;20940;-68
2023/07/13 07:33:54;;;;;;;3.28;0.82;;;23.40;62.10;;;;;;2525122;54;20984;-69
2023/07/13 07:36:20;;;;;;;1.83;0.75;;;23.50;62.10;;;;;;2527820;54;20972;-69
2023/07/13 07:38:50;;;;;;;2.22;0.90;;;23.50;62.10;;;;;;2523573;54;20921;-68
2023/07/13 07:41:18;;;;;;;3.15;0.95;;;23.60;62.10;;;;;;2504818;54;20929;-70
2023/07/13 07:43:47;;;;;;;2.05;0.88;;;23.60;61.80;;;;;;2527774;54;21028;-70
2023/07/13 07:46:13;;;;;;;2.92;1.05;;;23.70;61.80;;;;;;2293169;55;20912;-68
2023/07/13 07:48:40;;;;;;;2.65;0.85;;;23.80;61.70;;;;;;2292757;55;21683;-69
2023/07/13 07:51:06;;;;;;;3.00;1.00;;;23.80;61.70;;;;;;2527386;54;20889;-68
2023/07/13 07:53:33;;;;;;;2.67;0.82;;;23.90;61.80;;;;;;2502420;54;20989;-68
2023/07/13 07:56:00;;;;;;;3.17;0.77;;;23.90;61.60;;;;;;2527773;54;20933;-69
2023/07/13 07:58:29;;;;;;;2.90;1.10;;;24.00;61.60;;;;;;2293298;55;20992;-69
2023/07/13 08:01:07;;;;;;;3.22;0.90;;;24.00;61.50;;;;;;2280713;55;20989;-68
2023/07/13 08:03:41;;;;;;;2.83;0.90;;;24.10;60.60;;;;;;2522079;54;21717;-67
2023/07/13 08:06:10;;;;;;;2.20;0.98;;;24.20;61.70;;;;;;2527202;54;20936;-69
2023/07/13 08:09:11;;;;;;;4.10;0.95;;;24.30;61.60;;;;;;2292298;55;20904;-72
2023/07/13 08:11:38;;;;;;;1.12;0.60;;;24.30;60.00;;;;;;2507459;54;20953;-72
2023/07/13 08:14:09;;;;;;;3.22;0.80;;;24.40;61.50;;;;;;2521467;54;21020;-68
2023/07/13 08:16:35;;;;;;;3.85;0.88;;;24.50;61.50;;;;;;2292581;55;21675;-68
2023/07/13 08:19:04;;;;;;;2.97;0.90;;;24.50;61.20;;;;;;2292204;55;21647;-69
2023/07/13 08:21:30;;;;;;;2.58;0.80;;;24.60;61.10;;;;;;2528300;54;20932;-70
2023/07/13 08:23:56;;;;;;;2.50;0.95;;;24.70;61.10;;;;;;2292927;55;21855;-68
2023/07/13 08:26:22;;;;;;;1.55;0.60;;;24.70;60.80;;;;;;2296879;55;20916;-70
2023/07/13 08:28:49;;;;;;;2.42;0.70;;;24.80;60.40;;;;;;2292872;55;20924;-71
2023/07/13 08:31:15;;;;;;;2.20;0.68;;;24.80;60.00;;;;;;2527119;54;20940;-69
2023/07/13 08:33:45;;;;;;;2.05;0.82;;;25.00;60.20;;;;;;2294213;55;20908;-71
2023/07/13 08:36:11;;;;;;;4.00;0.90;;;25.00;59.70;;;;;;2274348;55;21911;-69
2023/07/13 08:38:40;;;;;;;1.90;0.80;;;25.00;59.80;;;;;;2528296;54;20944;-68
2023/07/13 08:41:12;;;;;;;2.62;0.70;;;25.10;59.70;;;;;;2291514;55;21074;-68
2023/07/13 08:43:39;;;;;;;;;;;25.10;59.30;;;;;;2280756;55;20936;-69
2023/07/13 08:52:57;;;;;;;2.47;1.00;;;25.20;58.60;;;;;;2292765;55;20116;-69
2023/07/13 08:55:33;;;;;;;1.98;0.45;;;25.30;59.30;;;;;;2528516;54;20913;-69
2023/07/13 08:58:13;;;;;;;2.22;0.60;;;25.60;59.40;;;;;;2292659;56;21000;-71
2023/07/13 09:00:52;;;;;;;2.62;1.10;;;25.60;58.40;;;;;;2526941;54;20888;-69
2023/07/13 09:03:24;;;;;;;3.67;0.65;;;25.60;58.50;;;;;;2292850;55;21000;-69
2023/07/13 09:05:56;;;;;;;2.35;0.80;;;25.70;59.20;;;;;;2293090;55;20998;-72
2023/07/13 09:11:40;;;;;;;1.62;0.70;;;25.70;58.80;;;;;;2527942;54;21011;-69
2023/07/13 09:17:15;;;;;;;1.35;0.60;;;25.90;58.50;;;;;;2527606;54;20912;-68
2023/07/13 09:19:43;;;;;;;2.75;0.60;;;26.00;58.60;;;;;;2292907;55;20956;-70
2023/07/13 09:22:16;;;;;;;2.30;0.80;;;26.10;59.70;;;;;;2292685;55;20928;-69
2023/07/13 09:24:54;;;;;;;1.92;0.80;;;26.10;59.20;;;;;;2273566;55;21001;-72
2023/07/13 09:27:24;;;;;;;2.03;0.70;;;26.20;58.60;;;;;;2292654;55;20944;-69
2023/07/13 09:30:03;;;;;;;2.25;0.73;;;26.20;59.00;;;;;;2527971;54;21087;-69
2023/07/13 09:32:29;;;;;;;2.85;0.62;;;26.30;58.10;;;;;;2528267;54;20988;-69
2023/07/13 09:34:55;;;;;;;2.30;0.82;;;26.30;59.00;;;;;;2292878;55;20917;-70
2023/07/13 09:37:27;;;;;;;1.83;0.70;;;26.40;58.80;;;;;;2528233;54;20929;-71
2023/07/13 09:39:53;;;;;;;1.45;0.60;;;26.40;58.50;;;;;;2501568;54;20965;-70
2023/07/13 09:42:21;;;;;;;2.45;0.80;;;26.50;58.30;;;;;;2292526;55;20924;-70
2023/07/13 09:44:58;;;;;;;2.15;0.80;;;26.60;58.00;;;;;;2527171;54;20928;-70
2023/07/13 09:47:29;;;;;;;2.15;0.70;;;26.60;57.00;;;;;;2292613;55;21020;-70
2023/07/13 09:50:07;;;;;;;3.72;0.82;;;26.60;57.70;;;;;;2292479;55;21020;-70
2023/07/13 09:52:47;;;;;;;2.80;0.80;;;26.70;56.50;;;;;;2527713;54;20908;-70
2023/07/13 09:55:39;;;;;;;1.87;0.82;;;26.70;56.30;;;;;;2294536;56;20949;-72
2023/07/13 09:58:29;;;;;;;3.33;0.80;;;26.80;55.70;;;;;;2292902;55;21015;-71
2023/07/13 10:01:00;;;;;;;1.98;0.70;;;26.80;56.80;;;;;;2292842;55;20941;-70
2023/07/13 10:03:33;;;;;;;2.10;0.73;;;26.90;57.00;;;;;;2528251;54;21042;-70
2023/07/13 10:06:13;;;;;;;2.85;0.85;;;26.90;56.70;;;;;;2292609;55;21030;-70
2023/07/13 10:08:40;;;;;;;1.95;0.60;;;26.90;56.10;;;;;;2292853;55;20955;-68
2023/07/13 10:11:26;;;;;;;1.25;0.50;;;27.00;56.70;;;;;;2292448;55;21779;-69
2023/07/13 10:13:56;;;;;;;1.85;0.60;;;27.00;56.40;;;;;;2292488;55;20928;-70
2023/07/13 10:16:28;;;;;;;1.73;0.77;;;27.10;56.90;;;;;;2292878;55;20921;-70
2023/07/13 10:19:01;;;;;;;2.47;0.77;;;27.10;56.50;;;;;;2528238;54;20912;-70
2023/07/13 10:21:41;;;;;;;2.40;0.80;;;27.20;56.00;;;;;;2292754;55;20972;-71
2023/07/13 10:24:19;;;;;;;2.40;0.70;;;27.20;55.50;;;;;;2527181;54;21070;-69
2023/07/13 10:27:25;;;;;;;2.20;0.68;;;27.20;55.90;;;;;;2292699;55;20952;-70
2023/07/13 10:30:35;;;;;;;2.03;0.60;;;27.30;55.30;;;;;;2528352;54;20980;-70
2023/07/13 10:33:02;;;;;;;2.58;0.60;;;27.40;54.80;;;;;;2527962;54;20917;-71
2023/07/13 10:35:29;;;;;;;2.60;0.88;;;27.40;56.20;;;;;;2528124;54;20948;-70
2023/07/13 10:38:17;;;;;;;1.92;0.80;;;27.40;56.00;;;;;;2292857;55;21013;-72
2023/07/13 10:41:07;;;;;;;3.12;0.93;;;27.50;54.90;;;;;;2528176;54;20928;-71
2023/07/13 10:43:41;;;;;;;2.30;0.90;;;27.50;53.70;;;;;;2528131;54;20940;-69
2023/07/13 10:46:12;;;;;;;7.15;1.00;;;27.60;54.90;;;;;;2500486;54;20912;-68
2023/07/13 10:48:39;;;;;;;1.90;0.70;;;27.60;54.80;;;;;;2527777;54;20961;-70
2023/07/13 10:51:07;;;;;;;2.10;0.60;;;27.60;55.20;;;;;;2527668;54;20897;-69
2023/07/13 10:53:35;;;;;;;2.67;0.77;;;27.70;55.40;;;;;;2528377;54;20948;-71
2023/07/13 10:56:38;;;;;;;2.95;1.00;;;27.70;55.20;;;;;;2527686;54;20936;-69
2023/07/13 10:59:38;;;;;;;2.60;0.80;;;27.80;54.60;;;;;;2293256;55;21023;-72
2023/07/13 11:02:27;;;;;;;1.95;0.70;;;27.90;52.80;;;;;;2291902;55;21039;-70
2023/07/13 11:04:56;;;;;;;1.70;0.68;;;27.90;53.30;;;;;;2527579;54;20993;-70
2023/07/13 11:07:27;;;;;;;2.80;0.60;;;27.90;55.00;;;;;;2528037;54;20956;-69
2023/07/13 11:09:56;;;;;;;1.98;0.70;;;28.00;54.80;;;;;;2283828;55;20941;-71
2023/07/13 11:12:28;;;;;;;1.40;0.52;;;28.00;54.60;;;;;;2286217;55;20979;-71
2023/07/13 11:15:10;;;;;;;1.98;0.80;;;28.00;53.90;;;;;;2272439;55;20920;-70
2023/07/13 11:17:44;;;;;;;1.45;0.60;;;28.10;53.70;;;;;;2528212;54;21782;-70
2023/07/13 11:20:36;;;;;;;2.33;0.60;;;28.10;54.60;;;;;;2523084;54;21986;-68
2023/07/13 11:23:20;;;;;;;3.90;0.70;;;28.20;52.80;;;;;;2511359;54;20940;-71
2023/07/13 11:25:47;;;;;;;2.75;0.88;;;28.20;52.80;;;;;;2292671;55;20932;-72
2023/07/13 11:28:20;;;;;;;2.12;0.70;;;28.20;54.40;;;;;;2292637;55;20968;-71
2023/07/13 11:31:23;;;;;;;2.75;0.82;;;28.30;54.10;;;;;;2293087;55;21052;-71
2023/07/13 11:33:55;;;;;;;1.42;0.52;;;28.30;54.20;;;;;;2292937;55;20944;-69
2023/07/13 11:36:23;;;;;;;1.35;0.60;;;28.40;53.60;;;;;;2528231;54;20928;-70
2023/07/13 11:39:00;;;;;;;2.15;0.60;;;28.40;53.80;;;;;;2292730;55;20936;-71
2023/07/13 11:41:35;;;;;;;2.92;0.60;;;28.50;52.40;;;;;;2293243;55;20936;-71
2023/07/13 11:44:16;;;;;;;3.87;0.70;;;28.50;53.60;;;;;;2292757;56;21019;-69
2023/07/13 11:46:51;;;;;;;1.48;0.55;;;28.60;51.90;;;;;;2276198;55;20966;-71
2023/07/13 11:49:20;;;;;;;2.00;0.60;;;28.70;52.90;;;;;;2527467;54;20925;-70
2023/07/13 11:51:55;;;;;;;1.23;0.60;;;28.70;53.30;;;;;;2292936;55;21312;-70
2023/07/13 11:54:29;;;;;;;;;;;28.70;53.10;;;;;;2277531;55;20901;-68
2023/07/13 11:57:01;;;;;;;2.40;0.80;;;28.80;52.00;;;;;;2527739;54;20409;-70
2023/07/13 11:59:29;;;;;;;1.20;0.45;;;28.80;53.00;;;;;;2292877;55;20953;-70
2023/07/13 12:01:55;;;;;;;1.90;0.50;;;28.80;53.10;;;;;;2293018;55;20928;-70
2023/07/13 12:04:24;;;;;;;1.80;0.60;;;28.90;53.20;;;;;;2527718;54;20916;-71
2023/07/13 12:07:24;;;;;;;1.83;0.60;;;28.90;53.00;;;;;;2528299;54;21355;-70
2023/07/13 12:09:50;;;;;;;1.95;0.70;;;29.00;51.50;;;;;;2292870;55;20952;-73
2023/07/13 12:12:21;;;;;;;2.83;0.80;;;29.00;52.70;;;;;;2292401;56;20979;-72
2023/07/13 12:14:54;;;;;;;1.92;0.80;;;29.00;51.60;;;;;;2292625;55;21819;-71
2023/07/13 12:17:22;;;;;;;2.28;0.77;;;29.10;51.80;;;;;;2527298;54;20968;-73
2023/07/13 12:19:49;;;;;;;3.10;0.90;;;29.10;52.10;;;;;;2527714;54;20940;-69
2023/07/13 12:22:16;;;;;;;2.67;0.70;;;29.10;51.90;;;;;;2527757;54;20988;-69
2023/07/13 12:24:45;;;;;;;2.62;0.80;;;29.20;52.10;;;;;;2291611;55;20928;-71
2023/07/13 12:27:25;;;;;;;1.80;0.70;;;29.20;51.90;;;;;;2272313;55;21026;-71
2023/07/13 12:29:53;;;;;;;2.00;0.70;;;29.20;50.60;;;;;;2527701;54;20985;-71
2023/07/13 12:32:19;;;;;;;2.25;0.80;;;29.20;51.60;;;;;;2292170;55;20924;-70
2023/07/13 12:34:56;;;;;;;3.22;0.80;;;29.20;51.50;;;;;;2292222;55;21536;-71
2023/07/13 12:37:23;;;;;;;2.03;0.70;;;29.20;50.50;;;;;;2292277;55;20988;-72
2023/07/13 12:39:49;;;;;;;1.75;0.70;;;29.20;51.30;;;;;;2527858;54;21576;-71
2023/07/13 12:42:24;;;;;;;1.12;0.60;;;29.20;51.20;;;;;;2499968;54;20997;-69
2023/07/13 12:44:53;;;;;;;1.00;0.47;;;29.20;51.00;;;;;;2527867;54;20916;-70
2023/07/13 12:47:22;;;;;;;0.95;0.37;;;29.20;51.00;;;;;;2527493;54;21441;-70
2023/07/13 12:49:55;;;;;;;2.53;0.77;;;29.20;52.00;;;;;;2527639;54;20897;-70
2023/07/13 12:52:35;;;;;;;2.08;0.60;;;29.10;51.30;;;;;;2527187;54;20944;-71
2023/07/13 12:55:14;;;;;;;1.67;0.55;;;29.10;50.20;;;;;;2293279;56;20952;-69
2023/07/13 12:57:49;;;;;;;2.75;0.60;;;29.10;50.40;;;;;;2292714;55;21023;-72
2023/07/13 13:00:32;;;;;;;2.15;0.55;;;29.10;51.50;;;;;;2528231;54;21004;-70
2023/07/13 13:03:03;;;;;;;2.28;0.60;;;29.10;50.90;;;;;;2527734;54;21014;-70
2023/07/13 13:05:37;;;;;;;0.75;0.50;;;29.10;51.50;;;;;;2292781;55;21046;-71
2023/07/13 13:08:03;;;;;;;2.72;0.60;;;29.00;51.50;;;;;;2293261;55;20920;-70
2023/07/13 13:10:30;;;;;;;1.23;0.50;;;29.10;51.50;;;;;;2292488;55;20984;-70
2023/07/13 13:12:59;;;;;;;1.77;0.68;;;29.10;51.50;;;;;;2279225;55;21033;-69
2023/07/13 13:15:25;;;;;;;1.58;0.50;;;29.10;51.60;;;;;;2281204;55;20936;-70
2023/07/13 13:17:51;;;;;;;2.37;0.70;;;29.10;51.50;;;;;;2281789;55;21112;-70